Time,TemperatureF,DewpointF,PressureIn,WindDirection,WindDirectionDegrees,WindSpeedMPH,WindSpeedGustMPH,Humidity,HourlyPrecipIn,Conditions,Clouds,dailyrainin,SoftwareType,DateUTC
2013-03-25 00:03:00,43.0,39.0,30.09,North,355,0.0,0.0,86,0.00,,,0.00,,2013-03-25 05:03:00,
2013-03-25 00:12:00,43.0,39.0,30.09,North,355,0.0,0.0,86,0.00,,,0.00,,2013-03-25 05:12:00,
2013-03-25 00:22:00,42.0,38.0,30.10,North,355,0.0,0.0,87,0.00,,,0.00,,2013-03-25 05:22:00,
2013-03-25 00:32:00,41.0,37.0,30.11,North,355,0.0,0.0,87,0.00,,,0.00,,2013-03-25 05:32:00,
2013-03-25 00:42:00,41.0,37.0,30.11,North,355,0.0,0.0,87,0.00,,,0.00,,2013-03-25 05:42:00,
2013-03-25 00:52:00,41.0,38.0,30.11,North,355,0.0,0.0,88,0.00,,,0.00,,2013-03-25 05:52:00,
2013-03-25 01:02:00,40.0,37.0,30.12,North,355,0.0,0.0,88,0.00,,,0.00,,2013-03-25 06:02:00,
2013-03-25 01:12:00,40.0,37.0,30.12,North,355,0.0,0.0,88,0.00,,,0.00,,2013-03-25 06:12:00,
2013-03-25 01:22:00,40.0,37.0,30.12,North,355,0.0,0.0,89,0.00,,,0.00,,2013-03-25 06:22:00,
2013-03-25 01:32:00,40.0,37.0,30.13,North,355,0.0,0.0,89,0.00,,,0.00,,2013-03-25 06:32:00,
2013-03-25 01:42:00,40.0,37.0,30.13,North,355,0.0,0.0,89,0.00,,,0.00,,2013-03-25 06:42:00,
2013-03-25 01:52:00,39.0,36.0,30.13,North,355,0.0,0.0,89,0.00,,,0.00,,2013-03-25 06:52:00,
2013-03-25 02:02:00,39.0,36.0,30.14,North,355,0.0,0.0,89,0.00,,,0.00,,2013-03-25 07:02:00,
2013-03-25 02:12:00,39.0,36.0,30.14,North,355,0.0,0.0,89,0.00,,,0.00,,2013-03-25 07:12:00,
2013-03-25 02:22:00,38.0,35.0,30.13,North,355,0.0,0.0,89,0.00,,,0.00,,2013-03-25 07:22:00,
2013-03-25 02:32:00,38.0,35.0,30.13,North,355,0.0,0.0,89,0.00,,,0.00,,2013-03-25 07:32:00,
2013-03-25 02:42:00,38.0,35.0,30.13,North,355,0.0,0.0,89,0.00,,,0.00,,2013-03-25 07:42:00,
2013-03-25 02:53:00,38.0,35.0,30.13,North,355,0.0,0.0,89,0.00,,,0.00,,2013-03-25 07:53:00,
2013-03-25 03:02:00,38.0,35.0,30.13,North,355,0.0,0.0,89,0.00,,,0.00,,2013-03-25 08:02:00,
2013-03-25 03:12:00,38.0,35.0,30.13,North,355,0.0,0.0,89,0.00,,,0.00,,2013-03-25 08:12:00,
2013-03-25 03:22:00,37.0,34.0,30.13,North,355,0.0,0.0,89,0.00,,,0.00,,2013-03-25 08:22:00,
2013-03-25 03:32:00,37.0,34.0,30.13,North,355,0.0,0.0,89,0.00,,,0.00,,2013-03-25 08:32:00,
2013-03-25 03:42:00,37.0,34.0,30.13,North,355,0.0,0.0,89,0.00,,,0.00,,2013-03-25 08:42:00,
2013-03-25 03:52:00,36.0,33.0,30.13,North,355,0.0,0.0,89,0.00,,,0.00,,2013-03-25 08:52:00,
2013-03-25 04:02:00,36.0,33.0,30.14,North,355,0.0,0.0,89,0.00,,,0.00,,2013-03-25 09:02:00,
2013-03-25 04:12:00,36.0,33.0,30.14,North,355,0.0,0.0,89,0.00,,,0.00,,2013-03-25 09:12:00,
2013-03-25 04:22:00,36.0,33.0,30.14,North,355,0.0,0.0,89,0.00,,,0.00,,2013-03-25 09:22:00,
2013-03-25 04:32:00,36.0,33.0,30.14,North,355,0.0,0.0,89,0.00,,,0.00,,2013-03-25 09:32:00,
2013-03-25 04:43:00,36.0,33.0,30.14,North,355,0.0,0.0,89,0.00,,,0.00,,2013-03-25 09:43:00,
2013-03-25 04:52:00,36.0,33.0,30.14,North,355,0.0,0.0,89,0.00,,,0.00,,2013-03-25 09:52:00,
2013-03-25 05:03:00,35.0,32.0,30.14,North,355,0.0,0.0,89,0.00,,,0.00,,2013-03-25 10:03:00,
2013-03-25 05:12:00,35.0,32.0,30.14,North,355,0.0,0.0,89,0.00,,,0.00,,2013-03-25 10:12:00,
2013-03-25 05:22:00,35.0,32.0,30.14,North,355,0.0,0.0,89,0.00,,,0.00,,2013-03-25 10:22:00,
2013-03-25 05:32:00,35.0,32.0,30.15,North,355,0.0,0.0,89,0.00,,,0.00,,2013-03-25 10:32:00,
2013-03-25 05:42:00,35.0,32.0,30.15,North,355,0.0,0.0,89,0.00,,,0.00,,2013-03-25 10:42:00,
2013-03-25 05:54:00,35.0,32.0,30.16,North,355,0.0,0.0,89,0.00,,,0.00,,2013-03-25 10:54:00,
2013-03-25 06:03:00,34.0,31.0,30.17,North,355,0.0,0.0,89,0.00,,,0.00,,2013-03-25 11:03:00,
2013-03-25 06:12:00,34.0,31.0,30.17,North,355,0.0,0.0,89,0.00,,,0.00,,2013-03-25 11:12:00,
2013-03-25 06:23:00,35.0,32.0,30.17,North,355,0.0,0.0,89,0.00,,,0.00,,2013-03-25 11:23:00,
2013-03-25 06:32:00,35.0,32.0,30.19,North,355,0.0,1.0,89,0.00,,,0.00,,2013-03-25 11:32:00,
2013-03-25 06:42:00,35.0,32.0,30.19,North,355,0.0,1.0,89,0.00,,,0.00,,2013-03-25 11:42:00,
2013-03-25 06:52:00,35.0,32.0,30.20,North,355,0.0,0.0,89,0.00,,,0.00,,2013-03-25 11:52:00,
2013-03-25 07:02:00,35.0,32.0,30.20,North,355,1.0,3.0,89,0.00,,,0.00,,2013-03-25 12:02:00,
2013-03-25 07:13:00,35.0,32.0,30.20,North,355,1.0,3.0,89,0.00,,,0.00,,2013-03-25 12:13:00,
2013-03-25 07:23:00,35.0,32.0,30.20,North,355,2.0,4.0,89,0.00,,,0.00,,2013-03-25 12:23:00,
2013-03-25 07:32:00,35.0,32.0,30.20,North,351,3.0,5.0,89,0.00,,,0.00,,2013-03-25 12:32:00,
2013-03-25 07:42:00,35.0,32.0,30.20,North,351,3.0,5.0,89,0.00,,,0.00,,2013-03-25 12:42:00,
2013-03-25 07:53:00,36.0,33.0,30.21,NW,326,3.0,5.0,89,0.00,,,0.00,,2013-03-25 12:53:00,
2013-03-25 08:02:00,37.0,34.0,30.21,North,360,3.0,7.0,90,0.00,,,0.00,,2013-03-25 13:02:00,
2013-03-25 08:13:00,37.0,34.0,30.21,North,360,3.0,7.0,90,0.00,,,0.00,,2013-03-25 13:13:00,
2013-03-25 08:22:00,38.0,35.0,30.23,NNE,28,4.0,8.0,88,0.00,,,0.00,,2013-03-25 13:22:00,
2013-03-25 08:32:00,40.0,36.0,30.23,North,9,3.0,10.0,84,0.00,,,0.00,,2013-03-25 13:32:00,
2013-03-25 08:42:00,40.0,36.0,30.23,North,9,3.0,10.0,84,0.00,,,0.00,,2013-03-25 13:42:00,
2013-03-25 08:52:00,41.0,35.0,30.24,NNW,339,5.0,12.0,79,0.00,,,0.00,,2013-03-25 13:52:00,
2013-03-25 09:03:00,42.0,35.0,30.25,NNE,22,4.0,9.0,77,0.00,,,0.00,,2013-03-25 14:03:00,
2013-03-25 09:12:00,42.0,35.0,30.25,NNE,22,4.0,9.0,77,0.00,,,0.00,,2013-03-25 14:12:00,
2013-03-25 09:22:00,44.0,35.0,30.27,North,349,4.0,7.0,70,0.00,,,0.00,,2013-03-25 14:22:00,
2013-03-25 09:32:00,45.0,34.0,30.28,NNW,341,5.0,13.0,64,0.00,,,0.00,,2013-03-25 14:32:00,
2013-03-25 09:42:00,45.0,34.0,30.28,NNW,341,5.0,13.0,64,0.00,,,0.00,,2013-03-25 14:42:00,
2013-03-25 09:53:00,46.0,32.0,30.28,North,360,9.0,13.0,58,0.00,,,0.00,,2013-03-25 14:53:00,
2013-03-25 10:02:00,48.0,34.0,30.28,NNW,343,5.0,14.0,57,0.00,,,0.00,,2013-03-25 15:02:00,
2013-03-25 10:12:00,48.0,34.0,30.28,NNW,343,5.0,14.0,57,0.00,,,0.00,,2013-03-25 15:12:00,
2013-03-25 10:22:00,48.0,31.0,30.29,NNW,348,6.0,11.0,52,0.00,,,0.00,,2013-03-25 15:22:00,
2013-03-25 10:32:00,49.0,30.0,30.29,NNW,341,6.0,12.0,48,0.00,,,0.00,,2013-03-25 15:32:00,
2013-03-25 10:42:00,49.0,30.0,30.29,NNW,341,6.0,12.0,48,0.00,,,0.00,,2013-03-25 15:42:00,
2013-03-25 10:53:00,50.0,31.0,30.29,NNW,337,6.0,11.0,48,0.00,,,0.00,,2013-03-25 15:53:00,
2013-03-25 11:03:00,52.0,31.0,30.29,NNE,12,6.0,14.0,45,0.00,,,0.00,,2013-03-25 16:03:00,
2013-03-25 11:12:00,52.0,31.0,30.29,NNE,12,6.0,14.0,45,0.00,,,0.00,,2013-03-25 16:12:00,
2013-03-25 11:23:00,52.0,31.0,30.29,NNE,12,6.0,14.0,45,0.00,,,0.00,,2013-03-25 16:23:00,
2013-03-25 11:33:00,54.0,31.0,30.29,North,5,5.0,11.0,42,0.00,,,0.00,,2013-03-25 16:33:00,
2013-03-25 11:43:00,54.0,31.0,30.29,North,5,5.0,11.0,42,0.00,,,0.00,,2013-03-25 16:43:00,
2013-03-25 11:53:00,55.0,29.0,30.29,NNE,21,7.0,12.0,37,0.00,,,0.00,,2013-03-25 16:53:00,
2013-03-25 12:02:00,55.0,29.0,30.29,North,355,4.0,11.0,37,0.00,,,0.00,,2013-03-25 17:02:00,
2013-03-25 12:12:00,55.0,29.0,30.29,North,355,4.0,11.0,37,0.00,,,0.00,,2013-03-25 17:12:00,
2013-03-25 12:23:00,56.0,29.0,30.28,North,360,4.0,13.0,35,0.00,,,0.00,,2013-03-25 17:23:00,
2013-03-25 12:32:00,57.0,30.0,30.28,North,355,6.0,12.0,36,0.00,,,0.00,,2013-03-25 17:32:00,
2013-03-25 12:42:00,57.0,30.0,30.28,North,355,6.0,12.0,36,0.00,,,0.00,,2013-03-25 17:42:00,
2013-03-25 12:53:00,57.0,28.0,30.27,North,5,7.0,14.0,33,0.00,,,0.00,,2013-03-25 17:53:00,
2013-03-25 13:03:00,58.0,29.0,30.27,NNW,344,5.0,14.0,33,0.00,,,0.00,,2013-03-25 18:03:00,
2013-03-25 13:12:00,58.0,29.0,30.27,NNW,344,5.0,14.0,33,0.00,,,0.00,,2013-03-25 18:12:00,
2013-03-25 13:22:00,59.0,28.0,30.27,WNW,297,8.0,15.0,31,0.00,,,0.00,,2013-03-25 18:22:00,
2013-03-25 13:32:00,59.0,28.0,30.26,North,5,7.0,17.0,30,0.00,,,0.00,,2013-03-25 18:32:00,
2013-03-25 13:42:00,59.0,28.0,30.26,North,5,7.0,17.0,30,0.00,,,0.00,,2013-03-25 18:42:00,
2013-03-25 13:53:00,59.0,27.0,30.25,NW,314,7.0,14.0,29,0.00,,,0.00,,2013-03-25 18:53:00,
2013-03-25 14:03:00,60.0,29.0,30.24,North,5,6.0,13.0,31,0.00,,,0.00,,2013-03-25 19:03:00,
2013-03-25 14:12:00,60.0,29.0,30.24,North,5,6.0,13.0,31,0.00,,,0.00,,2013-03-25 19:12:00,
2013-03-25 14:22:00,60.0,30.0,30.22,NNW,342,6.0,12.0,32,0.00,,,0.00,,2013-03-25 19:22:00,
2013-03-25 14:33:00,62.0,29.0,30.22,North,9,6.0,16.0,29,0.00,,,0.00,,2013-03-25 19:33:00,
2013-03-25 14:42:00,62.0,29.0,30.22,North,9,6.0,16.0,29,0.00,,,0.00,,2013-03-25 19:42:00,
2013-03-25 14:52:00,62.0,31.0,30.21,NNW,333,6.0,12.0,31,0.00,,,0.00,,2013-03-25 19:52:00,
2013-03-25 15:02:00,62.0,31.0,30.20,North,355,5.0,16.0,31,0.00,,,0.00,,2013-03-25 20:02:00,
2013-03-25 15:12:00,62.0,31.0,30.20,North,355,5.0,16.0,31,0.00,,,0.00,,2013-03-25 20:12:00,
2013-03-25 15:22:00,63.0,29.0,30.19,North,355,7.0,22.0,27,0.00,,,0.00,,2013-03-25 20:22:00,
2013-03-25 15:32:00,63.0,28.0,30.19,North,5,8.0,14.0,26,0.00,,,0.00,,2013-03-25 20:32:00,
2013-03-25 15:42:00,63.0,28.0,30.19,North,5,8.0,14.0,26,0.00,,,0.00,,2013-03-25 20:42:00,
2013-03-25 15:52:00,63.0,28.0,30.19,North,360,5.0,16.0,26,0.00,,,0.00,,2013-03-25 20:52:00,
2013-03-25 16:02:00,64.0,30.0,30.18,NNW,331,2.0,12.0,28,0.00,,,0.00,,2013-03-25 21:02:00,
2013-03-25 16:12:00,64.0,30.0,30.18,NNW,331,2.0,12.0,28,0.00,,,0.00,,2013-03-25 21:12:00,
2013-03-25 16:22:00,64.0,27.0,30.17,NNW,327,6.0,14.0,25,0.00,,,0.00,,2013-03-25 21:22:00,
2013-03-25 16:33:00,64.0,27.0,30.18,NW,320,4.0,15.0,25,0.00,,,0.00,,2013-03-25 21:33:00,
2013-03-25 16:42:00,64.0,27.0,30.18,NW,320,4.0,15.0,25,0.00,,,0.00,,2013-03-25 21:42:00,
2013-03-25 16:52:00,64.0,27.0,30.18,NW,320,5.0,12.0,25,0.00,,,0.00,,2013-03-25 21:52:00,
2013-03-25 17:03:00,64.0,28.0,30.18,NW,321,4.0,13.0,26,0.00,,,0.00,,2013-03-25 22:03:00,
2013-03-25 17:12:00,64.0,28.0,30.18,NW,321,4.0,13.0,26,0.00,,,0.00,,2013-03-25 22:12:00,
2013-03-25 17:23:00,64.0,28.0,30.17,NNW,336,5.0,14.0,26,0.00,,,0.00,,2013-03-25 22:23:00,
2013-03-25 17:33:00,64.0,27.0,30.18,North,5,7.0,12.0,25,0.00,,,0.00,,2013-03-25 22:33:00,
2013-03-25 17:42:00,64.0,27.0,30.18,North,5,7.0,12.0,25,0.00,,,0.00,,2013-03-25 22:42:00,
2013-03-25 17:52:00,63.0,25.0,30.18,NNE,13,5.0,12.0,23,0.00,,,0.00,,2013-03-25 22:52:00,
2013-03-25 18:02:00,64.0,26.0,30.17,WNW,297,4.0,12.0,24,0.00,,,0.00,,2013-03-25 23:02:00,
2013-03-25 18:12:00,64.0,26.0,30.17,WNW,297,4.0,12.0,24,0.00,,,0.00,,2013-03-25 23:12:00,
2013-03-25 18:23:00,63.0,28.0,30.17,NW,308,3.0,12.0,26,0.00,,,0.00,,2013-03-25 23:23:00,
2013-03-25 18:32:00,62.0,27.0,30.18,NNW,339,3.0,11.0,26,0.00,,,0.00,,2013-03-25 23:32:00,
2013-03-25 18:42:00,62.0,27.0,30.18,NNW,339,3.0,11.0,26,0.00,,,0.00,,2013-03-25 23:42:00,
2013-03-25 18:53:00,61.0,28.0,30.19,NNW,346,1.0,9.0,28,0.00,,,0.00,,2013-03-25 23:53:00,
2013-03-25 19:02:00,60.0,27.0,30.19,NNW,327,3.0,7.0,28,0.00,,,0.00,,2013-03-26 00:02:00,
2013-03-25 19:12:00,60.0,27.0,30.19,NNW,327,3.0,7.0,28,0.00,,,0.00,,2013-03-26 00:12:00,
2013-03-25 19:22:00,59.0,30.0,30.20,NNW,331,0.0,5.0,33,0.00,,,0.00,,2013-03-26 00:22:00,
2013-03-25 19:32:00,58.0,34.0,30.20,NNW,331,0.0,0.0,40,0.00,,,0.00,,2013-03-26 00:32:00,
2013-03-25 19:42:00,58.0,34.0,30.20,NNW,331,0.0,0.0,40,0.00,,,0.00,,2013-03-26 00:42:00,
2013-03-25 19:52:00,56.0,33.0,30.21,NNW,331,0.0,2.0,42,0.00,,,0.00,,2013-03-26 00:52:00,
2013-03-25 20:02:00,54.0,37.0,30.22,NNW,331,0.0,0.0,53,0.00,,,0.00,,2013-03-26 01:02:00,
2013-03-25 20:12:00,54.0,37.0,30.22,NNW,331,0.0,0.0,53,0.00,,,0.00,,2013-03-26 01:12:00,
2013-03-25 20:22:00,52.0,40.0,30.23,NNW,331,0.0,0.0,63,0.00,,,0.00,,2013-03-26 01:22:00,
2013-03-25 20:32:00,50.0,41.0,30.24,NNW,331,0.0,0.0,71,0.00,,,0.00,,2013-03-26 01:32:00,
2013-03-25 20:42:00,50.0,41.0,30.24,NNW,331,0.0,0.0,71,0.00,,,0.00,,2013-03-26 01:42:00,
2013-03-25 20:52:00,48.0,41.0,30.24,NNW,331,0.0,0.0,77,0.00,,,0.00,,2013-03-26 01:52:00,
2013-03-25 21:02:00,46.0,40.0,30.25,NNW,331,0.0,0.0,80,0.00,,,0.00,,2013-03-26 02:02:00,
2013-03-25 21:12:00,46.0,40.0,30.25,NNW,331,0.0,0.0,80,0.00,,,0.00,,2013-03-26 02:12:00,
2013-03-25 21:22:00,45.0,40.0,30.26,NNW,331,0.0,0.0,82,0.00,,,0.00,,2013-03-26 02:22:00,
2013-03-25 21:32:00,44.0,39.0,30.26,NNW,331,0.0,0.0,83,0.00,,,0.00,,2013-03-26 02:32:00,
2013-03-25 21:42:00,44.0,39.0,30.26,NNW,331,0.0,0.0,83,0.00,,,0.00,,2013-03-26 02:42:00,
2013-03-25 21:52:00,43.0,39.0,30.27,NNW,331,0.0,0.0,85,0.00,,,0.00,,2013-03-26 02:52:00,
2013-03-25 22:02:00,42.0,38.0,30.28,NNW,331,0.0,0.0,86,0.00,,,0.00,,2013-03-26 03:02:00,
2013-03-25 22:12:00,42.0,38.0,30.28,NNW,331,0.0,0.0,86,0.00,,,0.00,,2013-03-26 03:12:00,
2013-03-25 22:22:00,42.0,38.0,30.29,NNW,331,0.0,0.0,87,0.00,,,0.00,,2013-03-26 03:22:00,
2013-03-25 22:33:00,41.0,38.0,30.30,NNW,331,0.0,0.0,88,0.00,,,0.00,,2013-03-26 03:33:00,
2013-03-25 22:42:00,41.0,38.0,30.30,NNW,331,0.0,0.0,88,0.00,,,0.00,,2013-03-26 03:42:00,
2013-03-25 22:53:00,41.0,38.0,30.30,NNW,331,0.0,0.0,88,0.00,,,0.00,,2013-03-26 03:53:00,
2013-03-25 23:03:00,40.0,37.0,30.31,NNW,331,0.0,0.0,88,0.00,,,0.00,,2013-03-26 04:03:00,
2013-03-25 23:12:00,40.0,37.0,30.31,NNW,331,0.0,0.0,88,0.00,,,0.00,,2013-03-26 04:12:00,
2013-03-25 23:23:00,40.0,37.0,30.32,NNW,331,0.0,0.0,88,0.00,,,0.00,,2013-03-26 04:23:00,
2013-03-25 23:32:00,39.0,36.0,30.32,NNW,331,0.0,0.0,89,0.00,,,0.00,,2013-03-26 04:32:00,
2013-03-25 23:43:00,39.0,36.0,30.32,NNW,331,0.0,0.0,89,0.00,,,0.00,,2013-03-26 04:43:00,
2013-03-25 23:53:00,39.0,36.0,30.33,NNW,331,0.0,0.0,89,0.00,,,0.00,,2013-03-26 04:53:00,